Time;durP1;ratioP1;P1;durP2;ratioP2;P2;SDS_P1;SDS_P2;PMS_P1;PMS_P2;Temp;Humidity;BMP_temperature;BMP_pressure;BME280_temperature;BME280_humidity;BME280_pressure;Samples;Min_cycle;Max_cycle;Signal;HPM_P1;HPM_P2
2023/03/25 00:04:29;;;;;;;2.80;1.13;;;;;;;;;;12898793;23;20018;-78
2023/03/25 00:09:29;;;;;;;2.53;1.02;;;;;;;;;;12900044;23;20076;-77
2023/03/25 00:14:33;;;;;;;1.30;0.85;;;;;;;;;;12872600;23;20089;-78
2023/03/25 00:19:34;;;;;;;2.55;0.80;;;;;;;;;;12872911;23;20437;-77
2023/03/25 00:24:36;;;;;;;3.03;1.00;;;;;;;;;;12874066;23;20020;-75
2023/03/25 00:29:36;;;;;;;2.75;1.25;;;;;;;;;;12855169;22;20012;-77
2023/03/25 00:34:46;;;;;;;1.88;1.05;;;;;;;;;;12875696;23;20015;-76
2023/03/25 00:39:46;;;;;;;2.05;0.90;;;;;;;;;;12899855;23;20019;-77
2023/03/25 00:44:49;;;;;;;2.53;1.00;;;;;;;;;;12901361;23;20314;-76
2023/03/25 00:49:50;;;;;;;1.67;1.15;;;;;;;;;;12903630;22;20047;-77
2023/03/25 00:54:55;;;;;;;1.55;0.90;;;;;;;;;;12822718;23;20024;-77
2023/03/25 00:59:56;;;;;;;3.05;1.70;;;;;;;;;;12847854;23;20027;-79
2023/03/25 01:04:58;;;;;;;3.20;1.95;;;;;;;;;;12874183;22;20485;-78
2023/03/25 01:10:01;;;;;;;4.70;2.05;;;;;;;;;;12872304;22;20129;-75
2023/03/25 01:15:01;;;;;;;3.92;2.15;;;;;;;;;;12898177;22;20054;-77
2023/03/25 01:20:08;;;;;;;3.65;2.10;;;;;;;;;;12872112;23;20016;-75
2023/03/25 01:25:09;;;;;;;3.65;2.30;;;;;;;;;;12902782;23;20445;-76
2023/03/25 01:30:11;;;;;;;6.63;2.67;;;;;;;;;;12880401;23;20036;-76
2023/03/25 01:35:11;;;;;;;2.50;2.10;;;;;;;;;;12880550;23;20020;-76
2023/03/25 01:40:17;;;;;;;4.88;2.20;;;;;;;;;;12885635;22;20047;-77
2023/03/25 01:45:20;;;;;;;3.60;2.00;;;;;;;;;;12852232;22;20167;-77
2023/03/25 01:50:20;;;;;;;4.65;2.40;;;;;;;;;;12901667;23;20395;-77
2023/03/25 01:55:26;;;;;;;2.78;1.85;;;;;;;;;;12850991;23;20016;-77
2023/03/25 02:00:29;;;;;;;4.97;1.98;;;;;;;;;;12876503;23;20039;-76
2023/03/25 02:05:57;;;;;;;4.95;3.03;;;;;;;;;;12904710;23;20009;-77
2023/03/25 02:11:07;;;;;;;3.35;1.65;;;;;;;;;;12849346;23;20012;-79
2023/03/25 02:16:48;;;;;;;2.45;1.30;;;;;;;;;;12881451;22;20345;-76
2023/03/25 02:22:36;;;;;;;3.13;1.60;;;;;;;;;;12901714;23;20031;-76
2023/03/25 02:27:51;;;;;;;3.10;1.40;;;;;;;;;;12902302;23;20035;-77
2023/03/25 02:33:12;;;;;;;2.63;1.10;;;;;;;;;;12901020;23;20441;-76
2023/03/25 02:38:24;;;;;;;4.47;1.13;;;;;;;;;;12874812;23;20030;-77
2023/03/25 02:43:34;;;;;;;2.75;0.95;;;;;;;;;;12877248;23;20047;-76
2023/03/25 02:48:47;;;;;;;2.67;1.08;;;;;;;;;;12874045;23;20019;-76
2023/03/25 02:53:49;;;;;;;5.45;1.33;;;;;;;;;;12873708;23;20040;-76
2023/03/25 02:58:54;;;;;;;3.42;1.35;;;;;;;;;;12849581;23;20828;-75
2023/03/25 03:03:55;;;;;;;2.20;1.15;;;;;;;;;;12875709;23;20028;-76
2023/03/25 03:09:11;;;;;;;3.55;1.00;;;;;;;;;;12876261;23;20342;-77
2023/03/25 03:14:30;;;;;;;2.28;0.93;;;;;;;;;;12874910;23;20043;-75
2023/03/25 03:19:37;;;;;;;4.90;1.15;;;;;;;;;;12902770;23;20019;-76
2023/03/25 03:24:57;;;;;;;4.78;1.17;;;;;;;;;;12877657;23;20012;-76
2023/03/25 03:30:03;;;;;;;2.28;0.85;;;;;;;;;;12901249;23;20479;-77
2023/03/25 03:35:08;;;;;;;2.38;0.90;;;;;;;;;;12875499;23;20015;-76
2023/03/25 03:40:11;;;;;;;1.52;1.05;;;;;;;;;;12907229;22;20043;-75
2023/03/25 03:45:32;;;;;;;6.00;1.00;;;;;;;;;;12877829;23;20012;-76
2023/03/25 03:50:37;;;;;;;3.83;1.00;;;;;;;;;;12873644;23;20538;-75
2023/03/25 03:55:44;;;;;;;2.05;1.00;;;;;;;;;;12899175;23;20054;-75
2023/03/25 04:01:12;;;;;;;3.35;1.30;;;;;;;;;;12874540;23;20073;-77
2023/03/25 04:06:23;;;;;;;4.70;1.10;;;;;;;;;;12832940;23;20012;-76
2023/03/25 04:11:34;;;;;;;3.38;1.23;;;;;;;;;;12848720;23;20135;-76
2023/03/25 04:16:36;;;;;;;3.20;1.00;;;;;;;;;;12901874;22;20798;-78
2023/03/25 04:21:36;;;;;;;3.55;0.80;;;;;;;;;;12901712;22;20663;-78
2023/03/25 04:26:38;;;;;;;4.00;1.00;;;;;;;;;;12849299;23;20020;-76
2023/03/25 04:31:45;;;;;;;2.25;0.90;;;;;;;;;;12900995;23;20004;-78
2023/03/25 04:37:00;;;;;;;2.33;1.13;;;;;;;;;;12875144;22;20020;-77
2023/03/25 04:42:02;;;;;;;1.77;0.75;;;;;;;;;;12900512;23;20024;-76
2023/03/25 04:47:02;;;;;;;3.13;0.90;;;;;;;;;;12872949;23;20058;-74
2023/03/25 04:52:03;;;;;;;2.22;0.80;;;;;;;;;;12873249;23;20062;-74
2023/03/25 04:57:04;;;;;;;0.90;0.80;;;;;;;;;;12898073;23;20027;-76
2023/03/25 05:02:11;;;;;;;2.15;0.85;;;;;;;;;;12900220;23;20027;-76
2023/03/25 05:07:12;;;;;;;3.55;0.88;;;;;;;;;;12876547;22;20016;-77
2023/03/25 05:12:16;;;;;;;5.03;1.00;;;;;;;;;;12876656;22;20012;-78
2023/03/25 05:17:18;;;;;;;;;;;;;;;;;;12875318;22;20380;-76
2023/03/25 05:22:21;;;;;;;2.27;0.90;;;;;;;;;;12853066;23;19981;-77
2023/03/25 05:27:22;;;;;;;1.80;0.73;;;;;;;;;;12877853;23;20027;-77
2023/03/25 05:32:24;;;;;;;2.50;0.88;;;;;;;;;;12878184;22;20091;-76
2023/03/25 05:37:25;;;;;;;2.92;0.90;;;;;;;;;;12905548;22;20011;-76
2023/03/25 05:42:47;;;;;;;1.38;1.05;;;;;;;;;;12920443;23;20031;-79
2023/03/25 05:47:53;;;;;;;3.57;1.17;;;;;;;;;;12896223;23;20035;-77
2023/03/25 05:52:54;;;;;;;5.57;1.52;;;;;;;;;;12891946;23;20018;-76
2023/03/25 05:57:55;;;;;;;2.50;1.10;;;;;;;;;;12878226;23;20011;-77
2023/03/25 06:02:58;;;;;;;2.90;1.13;;;;;;;;;;12877253;23;20735;-78
2023/03/25 06:07:58;;;;;;;1.33;0.93;;;;;;;;;;12878955;23;20044;-78
2023/03/25 06:13:00;;;;;;;1.42;0.80;;;;;;;;;;12881363;22;20008;-78
2023/03/25 06:18:03;;;;;;;1.52;0.82;;;;;;;;;;12903673;22;20028;-78
2023/03/25 06:23:05;;;;;;;1.88;0.85;;;;;;;;;;12857951;22;20743;-77
2023/03/25 06:28:08;;;;;;;2.20;0.95;;;;;;;;;;12903923;23;20015;-75
2023/03/25 06:33:09;;;;;;;2.25;0.70;;;;;;;;;;12903486;23;20341;-75
2023/03/25 06:38:10;;;;;;;1.20;0.93;;;;;;;;;;12901273;23;20732;-76
2023/03/25 06:43:35;;;;;;;;;;;;;;;;;;12859396;23;20024;-77
2023/03/25 06:48:55;;;;;;;3.22;1.10;;;;;;;;;;12875186;23;20629;-79
2023/03/25 06:53:55;;;;;;;3.15;1.10;;;;;;;;;;12849784;23;20012;-77
2023/03/25 06:58:59;;;;;;;2.38;0.95;;;;;;;;;;12926131;22;20004;-79
2023/03/25 07:04:00;;;;;;;2.40;0.80;;;;;;;;;;12926971;23;20039;-73
2023/03/25 07:09:05;;;;;;;1.90;0.90;;;;;;;;;;12960247;22;20120;-78
2023/03/25 07:14:06;;;;;;;1.65;0.90;;;;;;;;;;12925236;22;20027;-77
2023/03/25 07:19:07;;;;;;;4.10;1.10;;;;;;;;;;12922395;23;20018;-77
2023/03/25 07:24:09;;;;;;;3.90;0.90;;;;;;;;;;12883616;23;20016;-77
2023/03/25 07:29:10;;;;;;;2.63;1.00;;;;;;;;;;12913309;23;20031;-78
2023/03/25 07:34:10;;;;;;;3.30;0.95;;;;;;;;;;12904929;23;20030;-76
2023/03/25 07:39:14;;;;;;;2.03;0.90;;;;;;;;;;12875967;23;20035;-78
2023/03/25 07:44:21;;;;;;;1.55;0.80;;;;;;;;;;12911414;23;20012;-77
2023/03/25 07:49:27;;;;;;;2.85;0.90;;;;;;;;;;12894334;23;20337;-80
2023/03/25 07:54:40;;;;;;;2.45;1.23;;;;;;;;;;12905698;23;20445;-79
2023/03/25 08:00:09;;;;;;;3.25;1.00;;;;;;;;;;12898755;23;20014;-78
2023/03/25 08:05:45;;;;;;;1.90;0.90;;;;;;;;;;12923259;23;20020;-80
2023/03/25 08:10:49;;;;;;;2.92;1.00;;;;;;;;;;12919969;22;20008;-82
2023/03/25 08:15:51;;;;;;;2.17;0.80;;;;;;;;;;12863786;23;20090;-80
2023/03/25 08:20:55;;;;;;;4.43;1.50;;;;;;;;;;12885421;22;20028;-81
2023/03/25 08:26:04;;;;;;;4.60;1.00;;;;;;;;;;12913784;22;20047;-79
2023/03/25 08:31:08;;;;;;;6.60;2.03;;;;;;;;;;12913281;23;20016;-79
2023/03/25 08:36:12;;;;;;;5.05;1.10;;;;;;;;;;12904682;23;20453;-80
2023/03/25 08:41:13;;;;;;;3.70;1.50;;;;;;;;;;12857652;23;20016;-81
2023/03/25 08:46:15;;;;;;;4.50;1.10;;;;;;;;;;12919716;23;20016;-78
2023/03/25 08:51:15;;;;;;;3.90;1.38;;;;;;;;;;12876539;22;20004;-74
2023/03/25 08:56:19;;;;;;;4.43;1.20;;;;;;;;;;12888596;23;20026;-80
2023/03/25 09:01:20;;;;;;;5.35;1.90;;;;;;;;;;12908962;23;20660;-76
2023/03/25 09:06:22;;;;;;;4.00;1.80;;;;;;;;;;12953198;22;20016;-77
2023/03/25 09:11:23;;;;;;;6.93;1.52;;;;;;;;;;12882174;23;20258;-81
2023/03/25 09:16:23;;;;;;;7.43;1.50;;;;;;;;;;12879648;23;20009;-79
2023/03/25 09:21:24;;;;;;;5.32;1.20;;;;;;;;;;12878753;23;20086;-79
2023/03/25 09:26:26;;;;;;;2.80;1.65;;;;;;;;;;12880782;22;20336;-79
2023/03/25 09:31:28;;;;;;;5.95;1.70;;;;;;;;;;12914850;22;20019;-82
2023/03/25 09:36:30;;;;;;;6.72;1.63;;;;;;;;;;12878723;22;20133;-78
2023/03/25 09:41:37;;;;;;;4.72;1.73;;;;;;;;;;12910067;23;20342;-78
2023/03/25 09:46:42;;;;;;;4.43;1.15;;;;;;;;;;12911428;23;20015;-78
2023/03/25 09:51:44;;;;;;;4.88;1.63;;;;;;;;;;12910072;22;20012;-80
2023/03/25 09:56:51;;;;;;;3.38;1.15;;;;;;;;;;12877898;22;20040;-80
2023/03/25 10:02:08;;;;;;;5.60;1.80;;;;;;;;;;12876820;23;20111;-80
2023/03/25 10:07:52;;;;;;;3.85;1.25;;;;;;;;;;12876720;23;20027;-78
2023/03/25 10:13:02;;;;;;;4.95;1.20;;;;;;;;;;12902831;23;20326;-76
2023/03/25 10:18:21;;;;;;;5.60;1.27;;;;;;;;;;12874595;22;20560;-75
2023/03/25 10:23:39;;;;;;;4.90;1.40;;;;;;;;;;12905522;23;20024;-76
2023/03/25 10:28:43;;;;;;;6.45;1.85;;;;;;;;;;12878113;23;20582;-79
2023/03/25 10:33:43;;;;;;;;;;;;;;;;;;12907082;23;20020;-78
2023/03/25 10:38:48;;;;;;;4.70;1.77;;;;;;;;;;12878057;23;19919;-79
2023/03/25 10:43:49;;;;;;;1.85;0.98;;;;;;;;;;12887329;23;20092;-78
2023/03/25 10:48:50;;;;;;;3.00;1.00;;;;;;;;;;12916861;23;20044;-79
2023/03/25 10:53:53;;;;;;;2.90;1.00;;;;;;;;;;12910286;23;20023;-77
2023/03/25 10:58:59;;;;;;;3.72;0.90;;;;;;;;;;12879657;23;20027;-79
2023/03/25 11:04:03;;;;;;;2.67;1.10;;;;;;;;;;12912823;23;20019;-79
2023/03/25 11:09:16;;;;;;;2.47;0.90;;;;;;;;;;12912759;23;20016;-80
2023/03/25 11:14:23;;;;;;;3.97;1.00;;;;;;;;;;12891021;23;20008;-78
2023/03/25 11:19:48;;;;;;;3.08;1.55;;;;;;;;;;12863515;23;20016;-78
2023/03/25 11:24:49;;;;;;;3.97;0.98;;;;;;;;;;12917182;22;20055;-77
2023/03/25 11:29:52;;;;;;;1.33;0.90;;;;;;;;;;12884407;23;20012;-74
2023/03/25 11:34:55;;;;;;;2.35;1.00;;;;;;;;;;12881821;23;20031;-78
2023/03/25 11:40:02;;;;;;;0.90;0.60;;;;;;;;;;12860200;23;20035;-77
2023/03/25 11:45:07;;;;;;;1.63;1.00;;;;;;;;;;12881881;22;20046;-78
2023/03/25 11:50:29;;;;;;;4.32;1.80;;;;;;;;;;12913303;23;20243;-79
2023/03/25 11:55:43;;;;;;;10.00;6.95;;;;;;;;;;12894532;23;20077;-76
2023/03/25 12:01:27;;;;;;;1.45;1.05;;;;;;;;;;12886816;23;20787;-78
2023/03/25 12:06:28;;;;;;;1.63;0.95;;;;;;;;;;12884784;23;20012;-76
2023/03/25 12:11:47;;;;;;;1.40;0.88;;;;;;;;;;12859024;23;20008;-77
2023/03/25 12:17:18;;;;;;;1.45;0.75;;;;;;;;;;12925371;22;20031;-78
2023/03/25 12:22:49;;;;;;;2.45;0.98;;;;;;;;;;12879340;23;20027;-78
2023/03/25 12:28:12;;;;;;;2.05;0.90;;;;;;;;;;12894414;23;20020;-79
2023/03/25 12:33:33;;;;;;;2.40;0.80;;;;;;;;;;12932415;23;20028;-77
2023/03/25 12:38:35;;;;;;;0.52;0.50;;;;;;;;;;12902806;23;20012;-76
2023/03/25 12:43:55;;;;;;;4.47;1.70;;;;;;;;;;12894305;23;20046;-81
2023/03/25 12:49:03;;;;;;;1.75;0.75;;;;;;;;;;12861603;22;20016;-83
2023/03/25 12:54:22;;;;;;;2.97;0.80;;;;;;;;;;12899943;23;20008;-77
2023/03/25 12:59:41;;;;;;;1.05;0.93;;;;;;;;;;12907534;23;20004;-79
2023/03/25 13:04:47;;;;;;;3.22;0.80;;;;;;;;;;12912938;22;20095;-79
2023/03/25 13:09:51;;;;;;;1.67;0.80;;;;;;;;;;12911844;22;20008;-79
2023/03/25 13:14:57;;;;;;;1.23;0.60;;;;;;;;;;12905866;23;20016;-79
2023/03/25 13:19:59;;;;;;;0.80;0.55;;;;;;;;;;12900667;22;20016;-79
2023/03/25 13:25:04;;;;;;;0.93;0.68;;;;;;;;;;12849183;22;20031;-78
2023/03/25 13:30:12;;;;;;;4.40;1.75;;;;;;;;;;12852311;23;20016;-79
2023/03/25 13:35:17;;;;;;;1.23;0.40;;;;;;;;;;12904571;23;20146;-80
2023/03/25 13:40:23;;;;;;;0.65;0.50;;;;;;;;;;12903795;23;20638;-80
2023/03/25 13:45:25;;;;;;;0.77;0.60;;;;;;;;;;12907548;23;20008;-80
2023/03/25 13:50:29;;;;;;;3.83;0.70;;;;;;;;;;12905535;23;20579;-81
2023/03/25 13:55:35;;;;;;;1.15;0.57;;;;;;;;;;12849199;23;21042;-82
2023/03/25 14:01:03;;;;;;;1.48;0.60;;;;;;;;;;12903096;23;20024;-78
2023/03/25 14:06:06;;;;;;;1.15;0.73;;;;;;;;;;12886882;23;20008;-81
2023/03/25 14:11:27;;;;;;;0.80;0.80;;;;;;;;;;12900217;23;20019;-80
2023/03/25 14:16:32;;;;;;;2.38;0.82;;;;;;;;;;12916553;23;20019;-78
2023/03/25 14:21:37;;;;;;;1.35;0.93;;;;;;;;;;12924776;23;20012;-79
2023/03/25 14:26:48;;;;;;;0.90;0.80;;;;;;;;;;12908621;23;20012;-80
2023/03/25 14:32:03;;;;;;;2.05;0.85;;;;;;;;;;12903945;23;20016;-80
2023/03/25 14:37:07;;;;;;;2.95;1.10;;;;;;;;;;12855345;23;20016;-83
2023/03/25 14:42:10;;;;;;;1.77;0.90;;;;;;;;;;12902957;23;20024;-76
2023/03/25 14:47:19;;;;;;;1.53;0.90;;;;;;;;;;12875074;22;20016;-77
2023/03/25 14:52:40;;;;;;;2.13;1.13;;;;;;;;;;12850671;23;20012;-76
2023/03/25 14:57:47;;;;;;;1.95;1.02;;;;;;;;;;12924165;22;20015;-80
2023/03/25 15:02:52;;;;;;;2.60;1.00;;;;;;;;;;12901482;23;20075;-79
2023/03/25 15:08:16;;;;;;;4.78;1.00;;;;;;;;;;12917485;22;20239;-78
2023/03/25 15:13:27;;;;;;;1.90;1.10;;;;;;;;;;12911318;23;20082;-77
2023/03/25 15:18:34;;;;;;;2.28;1.00;;;;;;;;;;12922645;22;20016;-79
2023/03/25 15:23:37;;;;;;;1.55;0.75;;;;;;;;;;12926862;23;20377;-77
2023/03/25 15:28:57;;;;;;;2.33;0.90;;;;;;;;;;12878027;23;20119;-79
2023/03/25 15:34:01;;;;;;;1.90;0.77;;;;;;;;;;12900431;22;20015;-78
2023/03/25 15:39:17;;;;;;;1.73;1.00;;;;;;;;;;12899372;22;20134;-77
2023/03/25 15:44:21;;;;;;;1.95;0.90;;;;;;;;;;12872688;23;20020;-79
2023/03/25 15:49:40;;;;;;;1.67;0.90;;;;;;;;;;12873182;23;20063;-77
2023/03/25 15:54:59;;;;;;;4.18;1.15;;;;;;;;;;12900002;23;20074;-78
2023/03/25 16:00:08;;;;;;;0.80;0.77;;;;;;;;;;12899028;22;20511;-78
2023/03/25 16:05:11;;;;;;;1.42;0.73;;;;;;;;;;12904665;23;20012;-78
2023/03/25 16:10:26;;;;;;;2.05;0.70;;;;;;;;;;12875080;23;20525;-79
2023/03/25 16:15:28;;;;;;;2.45;1.00;;;;;;;;;;12902460;23;20016;-82
2023/03/25 16:20:30;;;;;;;3.47;0.80;;;;;;;;;;12879864;22;20012;-80
2023/03/25 16:25:34;;;;;;;1.40;0.70;;;;;;;;;;12908644;23;20016;-78
2023/03/25 16:30:37;;;;;;;2.88;1.10;;;;;;;;;;12908653;23;20035;-81
2023/03/25 16:35:45;;;;;;;2.05;1.00;;;;;;;;;;12916596;23;20012;-81
2023/03/25 16:40:51;;;;;;;2.75;1.45;;;;;;;;;;12926490;23;20020;-78
2023/03/25 16:45:54;;;;;;;3.05;1.10;;;;;;;;;;12846558;23;20016;-80
2023/03/25 16:50:58;;;;;;;3.20;1.05;;;;;;;;;;12848474;23;20019;-79
2023/03/25 16:56:11;;;;;;;1.65;0.90;;;;;;;;;;12901814;23;20386;-80
2023/03/25 17:01:16;;;;;;;3.38;1.10;;;;;;;;;;12847816;23;20363;-79
2023/03/25 17:06:27;;;;;;;3.75;1.40;;;;;;;;;;12881325;23;20012;-81
2023/03/25 17:11:28;;;;;;;2.15;1.13;;;;;;;;;;12881506;23;20433;-79
2023/03/25 17:16:30;;;;;;;3.80;1.35;;;;;;;;;;12855976;23;20012;-78
2023/03/25 17:21:32;;;;;;;2.47;1.20;;;;;;;;;;12877820;22;20020;-78
2023/03/25 17:26:51;;;;;;;2.00;0.85;;;;;;;;;;12853069;23;20019;-78
2023/03/25 17:31:58;;;;;;;3.10;1.40;;;;;;;;;;12877033;23;20012;-78
2023/03/25 17:37:02;;;;;;;3.45;1.20;;;;;;;;;;12875652;22;20027;-77
2023/03/25 17:42:07;;;;;;;2.00;0.95;;;;;;;;;;12877321;23;20520;-79
2023/03/25 17:47:12;;;;;;;1.80;0.90;;;;;;;;;;12877739;23;20452;-79
2023/03/25 17:52:13;;;;;;;3.15;1.35;;;;;;;;;;12855261;23;20714;-79
2023/03/25 17:57:16;;;;;;;3.25;1.60;;;;;;;;;;12880785;23;20011;-80
2023/03/25 18:02:18;;;;;;;5.28;1.20;;;;;;;;;;12910434;23;20024;-80
2023/03/25 18:07:20;;;;;;;4.17;1.40;;;;;;;;;;12878294;23;20008;-79
2023/03/25 18:12:21;;;;;;;4.15;1.65;;;;;;;;;;12906929;23;20266;-80
2023/03/25 18:17:22;;;;;;;1.48;1.00;;;;;;;;;;12888109;23;20087;-81
2023/03/25 18:22:23;;;;;;;1.45;1.05;;;;;;;;;;12906980;23;20508;-82
2023/03/25 18:27:24;;;;;;;4.32;1.40;;;;;;;;;;12880151;23;20016;-80
2023/03/25 18:32:24;;;;;;;2.57;1.27;;;;;;;;;;12878509;23;20428;-80
2023/03/25 18:37:25;;;;;;;5.30;1.20;;;;;;;;;;12885375;23;20557;-80
2023/03/25 18:42:25;;;;;;;3.47;1.20;;;;;;;;;;12910871;23;20020;-80
2023/03/25 18:47:26;;;;;;;2.53;1.30;;;;;;;;;;12859190;23;20453;-82
2023/03/25 18:52:27;;;;;;;3.97;1.13;;;;;;;;;;12882331;23;20093;-80
2023/03/25 18:57:30;;;;;;;3.60;1.23;;;;;;;;;;12908939;23;20020;-81
2023/03/25 19:02:31;;;;;;;3.78;1.20;;;;;;;;;;12910105;23;20044;-80
2023/03/25 19:07:33;;;;;;;2.90;1.37;;;;;;;;;;12910951;22;20314;-83
2023/03/25 19:12:33;;;;;;;5.80;1.65;;;;;;;;;;12917448;22;20004;-82
2023/03/25 19:17:34;;;;;;;3.10;1.80;;;;;;;;;;12927692;23;20031;-79
2023/03/25 19:22:34;;;;;;;3.92;2.25;;;;;;;;;;12948116;23;20298;-83
2023/03/25 19:27:37;;;;;;;4.47;2.10;;;;;;;;;;12957397;23;20304;-82
2023/03/25 19:32:38;;;;;;;3.95;2.28;;;;;;;;;;12963097;22;20223;-83
2023/03/25 19:37:46;;;;;;;3.25;1.45;;;;;;;;;;12965223;22;20011;-82
2023/03/25 19:42:51;;;;;;;2.83;1.33;;;;;;;;;;12966275;22;20082;-80
2023/03/25 19:47:51;;;;;;;2.47;0.93;;;;;;;;;;12966835;22;20023;-82
2023/03/25 19:52:52;;;;;;;4.67;1.30;;;;;;;;;;12943045;22;19996;-81
2023/03/25 19:57:53;;;;;;;3.40;1.23;;;;;;;;;;12963922;22;20242;-81
2023/03/25 20:02:57;;;;;;;2.38;1.05;;;;;;;;;;12964742;22;20035;-79
2023/03/25 20:07:58;;;;;;;2.55;1.00;;;;;;;;;;12963521;22;20012;-77
2023/03/25 20:12:58;;;;;;;2.95;0.90;;;;;;;;;;12912422;23;21040;-80
2023/03/25 20:18:00;;;;;;;1.58;0.82;;;;;;;;;;12886898;23;20012;-79
2023/03/25 20:23:02;;;;;;;2.17;1.10;;;;;;;;;;12854091;23;20028;-80
2023/03/25 20:28:02;;;;;;;1.70;0.82;;;;;;;;;;12854385;23;20255;-79
2023/03/25 20:33:03;;;;;;;2.33;0.70;;;;;;;;;;12884837;23;20019;-82
2023/03/25 20:38:03;;;;;;;3.85;0.80;;;;;;;;;;12906004;23;20070;-82
2023/03/25 20:43:05;;;;;;;2.40;0.75;;;;;;;;;;12894608;23;20051;-79
2023/03/25 20:48:07;;;;;;;2.22;1.00;;;;;;;;;;12913803;23;20012;-82
2023/03/25 20:53:07;;;;;;;1.80;0.75;;;;;;;;;;12887272;23;20539;-82
2023/03/25 20:58:11;;;;;;;2.05;0.88;;;;;;;;;;12904912;23;20012;-79
2023/03/25 21:03:15;;;;;;;1.63;0.93;;;;;;;;;;12921973;23;20027;-78
2023/03/25 21:08:15;;;;;;;1.08;0.60;;;;;;;;;;12900919;23;20008;-83
2023/03/25 21:13:27;;;;;;;1.10;0.63;;;;;;;;;;12907640;23;20104;-84
2023/03/25 21:18:29;;;;;;;2.17;0.80;;;;;;;;;;12935397;22;19992;-85
2023/03/25 21:23:41;;;;;;;3.17;1.20;;;;;;;;;;12895301;23;20024;-80
2023/03/25 21:28:44;;;;;;;2.10;1.00;;;;;;;;;;12883822;23;20000;-82
2023/03/25 21:33:47;;;;;;;3.38;1.05;;;;;;;;;;12895620;23;20043;-83
2023/03/25 21:38:53;;;;;;;1.58;0.82;;;;;;;;;;12915899;23;20012;-79
2023/03/25 21:43:54;;;;;;;1.42;0.75;;;;;;;;;;12926235;23;20666;-83
2023/03/25 21:48:59;;;;;;;3.25;1.05;;;;;;;;;;12897401;23;20601;-82
2023/03/25 21:54:00;;;;;;;3.08;1.63;;;;;;;;;;12875382;23;20012;-80
2023/03/25 21:59:03;;;;;;;1.40;0.77;;;;;;;;;;12876428;23;20088;-80
2023/03/25 22:04:05;;;;;;;2.55;1.02;;;;;;;;;;12942449;22;20059;-81
2023/03/25 22:09:08;;;;;;;1.02;0.90;;;;;;;;;;12939594;22;20408;-81
2023/03/25 22:14:11;;;;;;;2.13;1.35;;;;;;;;;;12943125;22;20247;-82
2023/03/25 22:19:12;;;;;;;2.10;1.10;;;;;;;;;;12916167;22;20036;-82
2023/03/25 22:24:16;;;;;;;2.70;0.88;;;;;;;;;;12970959;22;20012;-82
2023/03/25 22:29:50;;;;;;;4.35;1.17;;;;;;;;;;12953040;22;20016;-82
2023/03/25 22:35:22;;;;;;;2.00;1.05;;;;;;;;;;12936827;22;20012;-84
2023/03/25 22:40:45;;;;;;;1.98;0.95;;;;;;;;;;12826026;23;20028;-82
2023/03/25 22:45:56;;;;;;;2.25;0.85;;;;;;;;;;12868099;23;20405;-83
2023/03/25 22:51:00;;;;;;;1.70;1.02;;;;;;;;;;12894580;23;20012;-83
2023/03/25 22:56:10;;;;;;;5.45;1.10;;;;;;;;;;12921560;23;20414;-83
2023/03/25 23:01:19;;;;;;;2.15;1.00;;;;;;;;;;12888926;23;20085;-83
2023/03/25 23:12:15;;;;;;;4.63;1.30;;;;;;;;;;12892174;22;20083;-82
2023/03/25 23:17:27;;;;;;;1.00;0.90;;;;;;;;;;13022410;22;20606;-81
2023/03/25 23:22:29;;;;;;;3.80;1.10;;;;;;;;;;13027228;22;20055;-83
2023/03/25 23:27:32;;;;;;;1.40;0.88;;;;;;;;;;13027951;22;20027;-81
2023/03/25 23:32:33;;;;;;;1.80;1.15;;;;;;;;;;13020908;22;20042;-83
2023/03/25 23:37:34;;;;;;;8.48;1.20;;;;;;;;;;13001372;22;19992;-83
2023/03/25 23:42:35;;;;;;;5.60;1.20;;;;;;;;;;13020060;22;20015;-82
2023/03/25 23:47:38;;;;;;;3.90;1.30;;;;;;;;;;12963193;22;20342;-81
2023/03/25 23:52:42;;;;;;;2.55;1.08;;;;;;;;;;12978146;22;20008;-83
2023/03/25 23:57:43;;;;;;;3.63;1.20;;;;;;;;;;12995253;22;20016;-83
